Time;durP1;ratioP1;P1;durP2;ratioP2;P2;SDS_P1;SDS_P2;PMS_P1;PMS_P2;Temp;Humidity;BMP_temperature;BMP_pressure;BME280_temperature;BME280_humidity;BME280_pressure;Samples;Min_cycle;Max_cycle;Signal;HPM_P1;HPM_P2
2022/02/23 09:01:34;;;;;;;19.23;3.33;;;;;;;;;;5055482;22;20133;-91
2022/02/23 09:04:02;;;;;;;18.63;3.50;;;;;;;;;;5022973;28;20049;-90
2022/02/23 09:06:32;;;;;;;16.60;4.30;;;;;;;;;;5042503;28;20330;-90
2022/02/23 09:09:23;;;;;;;20.38;3.20;;;;;;;;;;5043677;28;20103;-90
2022/02/23 09:12:04;;;;;;;16.20;3.13;;;;;;;;;;5022633;28;20488;-92
2022/02/23 09:14:31;;;;;;;21.88;4.10;;;;;;;;;;5043808;28;20047;-90
2022/02/23 09:16:58;;;;;;;16.55;3.38;;;;;;;;;;5048676;28;20364;-90
2022/02/23 12:36:22;;;;;;;10.80;1.83;;;;;;;;;;5729949;22;20025;-89
2022/02/23 12:38:50;;;;;;;7.63;1.88;;;;;;;;;;5047407;28;20053;-89
2022/02/23 12:41:27;;;;;;;10.77;2.13;;;;;;;;;;5013362;28;20046;-89
2022/02/23 12:44:02;;;;;;;8.00;1.55;;;;;;;;;;5031465;28;20061;-89
2022/02/23 12:46:39;;;;;;;8.48;1.42;;;;;;;;;;5013121;28;20060;-89
2022/02/23 12:49:06;;;;;;;7.82;1.58;;;;;;;;;;5012622;28;20103;-89
2022/02/23 12:51:33;;;;;;;5.53;1.15;;;;;;;;;;5013510;28;20061;-89
2022/02/23 12:54:22;;;;;;;10.85;1.23;;;;;;;;;;5031297;28;20329;-89
2022/02/23 12:56:50;;;;;;;7.90;1.38;;;;;;;;;;5025834;28;20049;-89
2022/02/23 12:59:19;;;;;;;7.07;1.10;;;;;;;;;;5039540;28;20081;-89
2022/02/23 13:01:57;;;;;;;6.28;1.20;;;;;;;;;;5002648;28;20191;-89
2022/02/23 13:04:33;;;;;;;5.75;1.30;;;;;;;;;;5043871;28;20294;-89
2022/02/23 13:07:03;;;;;;;6.20;1.10;;;;;;;;;;5042907;28;20096;-89
2022/02/23 13:09:37;;;;;;;4.63;1.17;;;;;;;;;;5029256;28;20052;-89
2022/02/23 13:12:08;;;;;;;9.43;1.20;;;;;;;;;;5029353;28;20107;-90
2022/02/23 13:14:35;;;;;;;6.10;1.30;;;;;;;;;;5029594;28;20176;-89
2022/02/23 13:17:03;;;;;;;8.98;1.38;;;;;;;;;;5011410;28;20186;-89
2022/02/23 13:19:35;;;;;;;4.85;1.23;;;;;;;;;;5029276;23;20238;-93
2022/02/23 13:22:30;;;;;;;;;;;;;;;;;;;;;
2022/02/23 13:25:23;;;;;;;7.22;1.13;;;;;;;;;;5041261;28;20091;-93
2022/02/23 13:28:07;;;;;;;5.85;1.13;;;;;;;;;;4996641;28;20267;-92
2022/02/23 13:30:56;;;;;;;9.85;1.33;;;;;;;;;;5028261;28;20053;-93
2022/02/23 13:33:43;;;;;;;3.22;0.90;;;;;;;;;;5029902;28;20187;-92
2022/02/23 13:36:51;;;;;;;6.25;1.13;;;;;;;;;;5015523;28;20212;-92
2022/02/23 13:39:33;;;;;;;5.88;1.10;;;;;;;;;;5016885;28;20061;-92
2022/02/23 13:42:36;;;;;;;6.43;1.42;;;;;;;;;;5023108;28;20324;-93
2022/02/23 13:45:31;;;;;;;5.32;1.20;;;;;;;;;;5020878;28;20149;-93
2022/02/23 13:48:32;;;;;;;5.70;1.40;;;;;;;;;;5017557;28;20041;-92
2022/02/23 13:51:40;;;;;;;;;;;;;;;;;;;;;
2022/02/23 13:54:31;;;;;;;7.88;1.10;;;;;;;;;;5032175;28;20548;-92
2022/02/23 13:57:12;;;;;;;3.78;1.00;;;;;;;;;;5021415;28;20068;-92
2022/02/23 14:00:28;;;;;;;5.30;1.38;;;;;;;;;;5011612;28;20188;-92
2022/02/23 14:03:16;;;;;;;5.60;1.10;;;;;;;;;;4991353;28;20484;-92
2022/02/23 14:06:25;;;;;;;6.40;1.13;;;;;;;;;;5012047;28;20276;-93
2022/02/23 14:09:15;;;;;;;6.65;1.67;;;;;;;;;;4989509;28;20050;-93
2022/02/23 14:12:15;;;;;;;7.10;1.70;;;;;;;;;;4983518;28;20084;-93
2022/02/23 14:14:58;;;;;;;3.35;0.88;;;;;;;;;;4999492;28;20209;-93
2022/02/23 14:17:57;;;;;;;3.38;1.00;;;;;;;;;;5002693;28;20096;-93
2022/02/23 14:20:52;;;;;;;6.00;1.10;;;;;;;;;;4998933;28;20088;-92
2022/02/23 14:23:37;;;;;;;6.55;1.25;;;;;;;;;;4975890;28;20299;-93
2022/02/23 14:26:27;;;;;;;7.97;1.52;;;;;;;;;;5000500;28;20129;-94
2022/02/23 14:29:15;;;;;;;3.25;1.08;;;;;;;;;;4992313;28;20120;-93
2022/02/23 14:32:01;;;;;;;6.90;1.55;;;;;;;;;;4990212;28;20216;-92
2022/02/23 14:34:48;;;;;;;5.90;1.00;;;;;;;;;;5004022;28;20064;-93
2022/02/23 14:37:35;;;;;;;6.97;1.42;;;;;;;;;;4968399;28;20049;-94
2022/02/23 14:40:36;;;;;;;4.85;1.38;;;;;;;;;;4986898;28;20603;-94
2022/02/23 14:43:23;;;;;;;7.55;1.35;;;;;;;;;;4972766;28;20058;-93
2022/02/23 14:46:06;;;;;;;5.28;1.52;;;;;;;;;;4978260;28;20042;-92
2022/02/23 14:48:38;;;;;;;9.38;1.55;;;;;;;;;;5001411;28;20264;-94
2022/02/23 14:51:42;;;;;;;7.78;1.40;;;;;;;;;;4976158;28;20047;-93
2022/02/23 14:54:34;;;;;;;7.90;1.38;;;;;;;;;;4966745;28;20038;-93
2022/02/23 14:57:24;;;;;;;5.35;1.23;;;;;;;;;;4979061;28;20530;-93
2022/02/23 15:00:19;;;;;;;6.25;1.33;;;;;;;;;;4985677;28;20191;-93
2022/02/23 15:03:19;;;;;;;8.32;1.23;;;;;;;;;;4994288;28;20049;-93
2022/02/23 15:08:49;;;;;;;12.70;1.85;;;;;;;;;;5005684;28;20807;-92
2022/02/23 15:11:19;;;;;;;9.48;1.63;;;;;;;;;;4981838;28;20621;-93
2022/02/23 15:14:13;;;;;;;4.28;1.13;;;;;;;;;;4988345;28;20151;-93
2022/02/23 15:19:44;;;;;;;;;;;;;;;;;;;;;
2022/02/23 15:22:14;;;;;;;10.65;1.50;;;;;;;;;;4996968;28;20053;-93
2022/02/23 15:24:44;;;;;;;8.18;1.30;;;;;;;;;;4994685;28;20104;-93
2022/02/23 15:27:29;;;;;;;4.53;1.15;;;;;;;;;;4996730;28;20118;-94
2022/02/23 15:30:02;;;;;;;5.43;1.38;;;;;;;;;;4994405;28;20057;-93
2022/02/23 15:32:33;;;;;;;3.35;1.23;;;;;;;;;;4979861;28;20046;-93
2022/02/23 15:35:14;;;;;;;7.22;1.10;;;;;;;;;;4992125;28;20057;-94
2022/02/23 15:37:55;;;;;;;4.20;1.30;;;;;;;;;;4990905;28;20077;-94
2022/02/23 15:40:25;;;;;;;9.10;2.17;;;;;;;;;;4981668;28;20162;-93
2022/02/23 15:43:11;;;;;;;5.93;1.45;;;;;;;;;;5007175;28;20049;-94
2022/02/23 15:45:54;;;;;;;8.98;1.65;;;;;;;;;;5018163;28;20033;-93
2022/02/23 15:48:26;;;;;;;6.13;1.27;;;;;;;;;;4984567;28;20058;-92
2022/02/23 15:50:54;;;;;;;4.90;1.20;;;;;;;;;;4981244;28;20385;-93
2022/02/23 15:53:50;;;;;;;8.38;1.23;;;;;;;;;;4994911;28;20049;-93
2022/02/23 15:56:32;;;;;;;8.10;1.38;;;;;;;;;;4970363;28;20062;-94
2022/02/23 15:59:28;;;;;;;7.95;1.20;;;;;;;;;;5008387;28;20061;-93
2022/02/23 16:02:34;;;;;;;6.70;1.15;;;;;;;;;;4972552;28;20055;-93
2022/02/23 16:05:15;;;;;;;7.90;1.77;;;;;;;;;;4991339;28;20208;-94
2022/02/23 16:07:59;;;;;;;9.25;1.80;;;;;;;;;;5073123;23;20174;-93
2022/02/23 16:10:41;;;;;;;6.15;1.83;;;;;;;;;;4991479;28;20081;-94
2022/02/23 16:13:23;;;;;;;6.97;1.60;;;;;;;;;;4975189;28;20073;-93
2022/02/23 16:15:58;;;;;;;6.55;1.70;;;;;;;;;;4977177;28;20050;-93
2022/02/23 16:18:45;;;;;;;5.90;1.98;;;;;;;;;;4968372;28;20051;-93
2022/02/23 16:21:16;;;;;;;8.07;1.92;;;;;;;;;;4989483;28;20393;-94
2022/02/23 16:24:03;;;;;;;11.30;2.25;;;;;;;;;;4963760;28;20096;-93
2022/02/23 16:26:44;;;;;;;9.52;1.70;;;;;;;;;;4998836;28;20077;-94
2022/02/23 16:29:37;;;;;;;9.70;1.38;;;;;;;;;;4976233;28;20070;-94
2022/02/23 16:32:20;;;;;;;8.88;2.25;;;;;;;;;;4974706;28;20034;-92
